sensor_id;sensor_type;location;lat;lon;timestamp;P1;durP1;ratioP1;P2;durP2;ratioP2
50932;SDS011;36921;49.006;9.292;2024-03-02T00:02:00;21.55;;;11.23;;
50932;SDS011;36921;49.006;9.292;2024-03-02T00:04:26;21.40;;;11.15;;
50932;SDS011;36921;49.006;9.292;2024-03-02T00:06:54;24.75;;;11.40;;
50932;SDS011;36921;49.006;9.292;2024-03-02T00:09:20;29.27;;;12.20;;
50932;SDS011;36921;49.006;9.292;2024-03-02T00:11:45;24.73;;;12.18;;
50932;SDS011;36921;49.006;9.292;2024-03-02T00:14:10;26.63;;;11.32;;
50932;SDS011;36921;49.006;9.292;2024-03-02T00:16:36;26.38;;;13.00;;
50932;SDS011;36921;49.006;9.292;2024-03-02T00:19:02;25.85;;;12.57;;
50932;SDS011;36921;49.006;9.292;2024-03-02T00:21:29;23.63;;;12.95;;
50932;SDS011;36921;49.006;9.292;2024-03-02T00:23:55;29.77;;;12.80;;
50932;SDS011;36921;49.006;9.292;2024-03-02T00:26:21;24.98;;;11.93;;
50932;SDS011;36921;49.006;9.292;2024-03-02T00:28:47;19.75;;;11.15;;
50932;SDS011;36921;49.006;9.292;2024-03-02T00:31:15;18.15;;;8.65;;
50932;SDS011;36921;49.006;9.292;2024-03-02T00:33:41;24.38;;;12.18;;
50932;SDS011;36921;49.006;9.292;2024-03-02T00:36:08;21.75;;;11.43;;
50932;SDS011;36921;49.006;9.292;2024-03-02T00:38:34;20.45;;;10.30;;
50932;SDS011;36921;49.006;9.292;2024-03-02T00:41:11;20.80;;;11.00;;
50932;SDS011;36921;49.006;9.292;2024-03-02T00:46:23;23.13;;;11.85;;
50932;SDS011;36921;49.006;9.292;2024-03-02T00:51:21;20.02;;;10.23;;
50932;SDS011;36921;49.006;9.292;2024-03-02T00:53:48;21.65;;;10.82;;
50932;SDS011;36921;49.006;9.292;2024-03-02T00:56:14;17.55;;;10.07;;
50932;SDS011;36921;49.006;9.292;2024-03-02T00:58:39;18.30;;;10.52;;
50932;SDS011;36921;49.006;9.292;2024-03-02T01:01:05;19.52;;;10.30;;
50932;SDS011;36921;49.006;9.292;2024-03-02T01:03:32;21.30;;;9.40;;
50932;SDS011;36921;49.006;9.292;2024-03-02T01:05:58;19.17;;;9.02;;
50932;SDS011;36921;49.006;9.292;2024-03-02T01:08:23;19.25;;;9.43;;
50932;SDS011;36921;49.006;9.292;2024-03-02T01:10:49;18.83;;;9.38;;
50932;SDS011;36921;49.006;9.292;2024-03-02T01:13:14;18.35;;;9.82;;
50932;SDS011;36921;49.006;9.292;2024-03-02T01:15:39;20.15;;;9.57;;
50932;SDS011;36921;49.006;9.292;2024-03-02T01:18:04;20.48;;;9.75;;
50932;SDS011;36921;49.006;9.292;2024-03-02T01:20:30;18.33;;;9.55;;
50932;SDS011;36921;49.006;9.292;2024-03-02T01:22:55;17.45;;;9.07;;
50932;SDS011;36921;49.006;9.292;2024-03-02T01:25:20;18.35;;;9.18;;
50932;SDS011;36921;49.006;9.292;2024-03-02T01:27:46;16.88;;;9.15;;
50932;SDS011;36921;49.006;9.292;2024-03-02T01:30:11;19.20;;;9.18;;
50932;SDS011;36921;49.006;9.292;2024-03-02T01:32:39;18.63;;;8.50;;
50932;SDS011;36921;49.006;9.292;2024-03-02T01:35:05;17.77;;;9.00;;
50932;SDS011;36921;49.006;9.292;2024-03-02T01:37:31;13.52;;;7.63;;
50932;SDS011;36921;49.006;9.292;2024-03-02T01:39:57;16.20;;;7.93;;
50932;SDS011;36921;49.006;9.292;2024-03-02T01:42:23;20.08;;;8.93;;
50932;SDS011;36921;49.006;9.292;2024-03-02T01:44:48;15.90;;;8.45;;
50932;SDS011;36921;49.006;9.292;2024-03-02T01:47:13;17.85;;;8.35;;
50932;SDS011;36921;49.006;9.292;2024-03-02T01:49:38;15.48;;;8.02;;
50932;SDS011;36921;49.006;9.292;2024-03-02T01:52:05;14.60;;;8.05;;
50932;SDS011;36921;49.006;9.292;2024-03-02T01:54:31;16.05;;;8.10;;
50932;SDS011;36921;49.006;9.292;2024-03-02T01:56:56;15.98;;;8.02;;
50932;SDS011;36921;49.006;9.292;2024-03-02T01:59:22;16.40;;;7.50;;
50932;SDS011;36921;49.006;9.292;2024-03-02T02:01:47;15.63;;;8.07;;
50932;SDS011;36921;49.006;9.292;2024-03-02T02:04:12;15.70;;;7.70;;
50932;SDS011;36921;49.006;9.292;2024-03-02T02:06:38;18.73;;;8.30;;
50932;SDS011;36921;49.006;9.292;2024-03-02T02:09:03;14.50;;;7.65;;
50932;SDS011;36921;49.006;9.292;2024-03-02T02:11:29;18.08;;;8.55;;
50932;SDS011;36921;49.006;9.292;2024-03-02T02:13:54;14.40;;;7.57;;
50932;SDS011;36921;49.006;9.292;2024-03-02T02:16:20;14.98;;;8.25;;
50932;SDS011;36921;49.006;9.292;2024-03-02T02:18:46;19.00;;;8.52;;
50932;SDS011;36921;49.006;9.292;2024-03-02T02:21:12;17.63;;;8.10;;
50932;SDS011;36921;49.006;9.292;2024-03-02T02:23:37;19.33;;;8.50;;
50932;SDS011;36921;49.006;9.292;2024-03-02T02:26:02;19.25;;;9.25;;
50932;SDS011;36921;49.006;9.292;2024-03-02T02:28:28;15.82;;;7.90;;
50932;SDS011;36921;49.006;9.292;2024-03-02T02:30:54;15.55;;;8.15;;
50932;SDS011;36921;49.006;9.292;2024-03-02T02:33:21;15.85;;;8.05;;
50932;SDS011;36921;49.006;9.292;2024-03-02T02:35:46;18.42;;;7.78;;
50932;SDS011;36921;49.006;9.292;2024-03-02T02:38:11;18.10;;;9.52;;
50932;SDS011;36921;49.006;9.292;2024-03-02T02:40:37;18.52;;;8.65;;
50932;SDS011;36921;49.006;9.292;2024-03-02T02:43:02;19.45;;;9.60;;
50932;SDS011;36921;49.006;9.292;2024-03-02T02:45:28;16.70;;;9.35;;
50932;SDS011;36921;49.006;9.292;2024-03-02T02:47:53;18.55;;;9.55;;
50932;SDS011;36921;49.006;9.292;2024-03-02T02:50:19;20.55;;;10.63;;
50932;SDS011;36921;49.006;9.292;2024-03-02T02:52:44;21.10;;;10.73;;
50932;SDS011;36921;49.006;9.292;2024-03-02T02:55:10;20.52;;;9.93;;
50932;SDS011;36921;49.006;9.292;2024-03-02T02:57:36;18.35;;;9.60;;
50932;SDS011;36921;49.006;9.292;2024-03-02T03:00:07;22.83;;;10.02;;
50932;SDS011;36921;49.006;9.292;2024-03-02T03:02:36;22.77;;;10.23;;
50932;SDS011;36921;49.006;9.292;2024-03-02T03:05:02;22.23;;;11.05;;
50932;SDS011;36921;49.006;9.292;2024-03-02T03:07:27;21.17;;;9.93;;
50932;SDS011;36921;49.006;9.292;2024-03-02T03:09:53;23.67;;;10.57;;
50932;SDS011;36921;49.006;9.292;2024-03-02T03:12:18;21.52;;;10.35;;
50932;SDS011;36921;49.006;9.292;2024-03-02T03:14:43;22.70;;;10.45;;
50932;SDS011;36921;49.006;9.292;2024-03-02T03:17:08;22.08;;;10.13;;
50932;SDS011;36921;49.006;9.292;2024-03-02T03:19:34;22.00;;;10.50;;
50932;SDS011;36921;49.006;9.292;2024-03-02T03:21:59;24.83;;;9.95;;
50932;SDS011;36921;49.006;9.292;2024-03-02T03:24:24;18.80;;;9.88;;
50932;SDS011;36921;49.006;9.292;2024-03-02T03:26:50;25.23;;;10.90;;
50932;SDS011;36921;49.006;9.292;2024-03-02T03:29:15;22.55;;;9.88;;
50932;SDS011;36921;49.006;9.292;2024-03-02T03:31:40;23.88;;;10.90;;
50932;SDS011;36921;49.006;9.292;2024-03-02T03:34:05;18.60;;;9.63;;
50932;SDS011;36921;49.006;9.292;2024-03-02T03:36:31;21.20;;;11.13;;
50932;SDS011;36921;49.006;9.292;2024-03-02T03:38:56;24.08;;;11.30;;
50932;SDS011;36921;49.006;9.292;2024-03-02T03:41:22;23.65;;;10.70;;
50932;SDS011;36921;49.006;9.292;2024-03-02T03:43:47;24.67;;;10.88;;
50932;SDS011;36921;49.006;9.292;2024-03-02T03:46:13;24.40;;;11.48;;
50932;SDS011;36921;49.006;9.292;2024-03-02T03:48:38;19.52;;;10.35;;
50932;SDS011;36921;49.006;9.292;2024-03-02T03:51:03;19.70;;;9.98;;
50932;SDS011;36921;49.006;9.292;2024-03-02T03:53:29;24.02;;;10.55;;
50932;SDS011;36921;49.006;9.292;2024-03-02T03:55:54;23.13;;;10.43;;
50932;SDS011;36921;49.006;9.292;2024-03-02T03:58:19;24.77;;;10.90;;
50932;SDS011;36921;49.006;9.292;2024-03-02T04:00:45;23.38;;;10.45;;
50932;SDS011;36921;49.006;9.292;2024-03-02T04:03:11;27.40;;;11.13;;
50932;SDS011;36921;49.006;9.292;2024-03-02T04:05:36;25.20;;;12.02;;
50932;SDS011;36921;49.006;9.292;2024-03-02T04:08:01;23.13;;;11.40;;
50932;SDS011;36921;49.006;9.292;2024-03-02T04:10:26;26.00;;;11.27;;
50932;SDS011;36921;49.006;9.292;2024-03-02T04:12:52;21.08;;;10.60;;
50932;SDS011;36921;49.006;9.292;2024-03-02T04:15:17;23.77;;;11.73;;
50932;SDS011;36921;49.006;9.292;2024-03-02T04:17:43;26.85;;;11.63;;
50932;SDS011;36921;49.006;9.292;2024-03-02T04:20:09;19.75;;;9.70;;
50932;SDS011;36921;49.006;9.292;2024-03-02T04:22:34;25.08;;;10.50;;
50932;SDS011;36921;49.006;9.292;2024-03-02T04:25:00;27.60;;;10.80;;
50932;SDS011;36921;49.006;9.292;2024-03-02T04:27:26;28.95;;;11.98;;
50932;SDS011;36921;49.006;9.292;2024-03-02T04:29:52;26.77;;;11.55;;
50932;SDS011;36921;49.006;9.292;2024-03-02T04:32:17;28.13;;;12.85;;
50932;SDS011;36921;49.006;9.292;2024-03-02T04:34:44;26.83;;;11.40;;
50932;SDS011;36921;49.006;9.292;2024-03-02T04:37:10;28.08;;;11.45;;
50932;SDS011;36921;49.006;9.292;2024-03-02T04:39:37;29.10;;;11.32;;
50932;SDS011;36921;49.006;9.292;2024-03-02T04:42:03;27.85;;;12.05;;
50932;SDS011;36921;49.006;9.292;2024-03-02T04:44:28;27.20;;;10.85;;
50932;SDS011;36921;49.006;9.292;2024-03-02T04:46:54;23.70;;;11.32;;
50932;SDS011;36921;49.006;9.292;2024-03-02T04:49:19;26.35;;;11.45;;
50932;SDS011;36921;49.006;9.292;2024-03-02T04:51:44;28.05;;;12.25;;
50932;SDS011;36921;49.006;9.292;2024-03-02T04:54:10;28.70;;;11.60;;
50932;SDS011;36921;49.006;9.292;2024-03-02T04:56:35;26.33;;;12.32;;
50932;SDS011;36921;49.006;9.292;2024-03-02T04:59:14;25.88;;;11.23;;
50932;SDS011;36921;49.006;9.292;2024-03-02T05:01:39;27.17;;;12.32;;
50932;SDS011;36921;49.006;9.292;2024-03-02T05:04:05;30.42;;;12.60;;
50932;SDS011;36921;49.006;9.292;2024-03-02T05:06:30;29.02;;;12.18;;
50932;SDS011;36921;49.006;9.292;2024-03-02T05:08:55;29.48;;;12.48;;
50932;SDS011;36921;49.006;9.292;2024-03-02T05:11:22;27.10;;;12.30;;
50932;SDS011;36921;49.006;9.292;2024-03-02T05:14:08;30.23;;;12.20;;
50932;SDS011;36921;49.006;9.292;2024-03-02T05:16:34;26.20;;;12.00;;
50932;SDS011;36921;49.006;9.292;2024-03-02T05:19:00;24.15;;;10.52;;
50932;SDS011;36921;49.006;9.292;2024-03-02T05:21:25;23.85;;;11.52;;
50932;SDS011;36921;49.006;9.292;2024-03-02T05:23:50;23.77;;;11.35;;
50932;SDS011;36921;49.006;9.292;2024-03-02T05:26:16;31.05;;;12.60;;
50932;SDS011;36921;49.006;9.292;2024-03-02T05:28:41;28.42;;;11.32;;
50932;SDS011;36921;49.006;9.292;2024-03-02T05:31:09;25.08;;;11.57;;
50932;SDS011;36921;49.006;9.292;2024-03-02T05:33:37;27.70;;;11.03;;
50932;SDS011;36921;49.006;9.292;2024-03-02T05:36:03;29.35;;;12.82;;
50932;SDS011;36921;49.006;9.292;2024-03-02T05:38:28;26.05;;;11.25;;
50932;SDS011;36921;49.006;9.292;2024-03-02T05:40:55;25.92;;;11.73;;
50932;SDS011;36921;49.006;9.292;2024-03-02T05:43:38;28.88;;;11.90;;
50932;SDS011;36921;49.006;9.292;2024-03-02T05:46:05;29.10;;;11.70;;
50932;SDS011;36921;49.006;9.292;2024-03-02T05:48:30;33.42;;;12.82;;
50932;SDS011;36921;49.006;9.292;2024-03-02T05:50:56;36.92;;;12.82;;
50932;SDS011;36921;49.006;9.292;2024-03-02T05:53:32;30.33;;;12.50;;
50932;SDS011;36921;49.006;9.292;2024-03-02T05:55:57;30.77;;;13.20;;
50932;SDS011;36921;49.006;9.292;2024-03-02T05:58:23;28.85;;;13.73;;
50932;SDS011;36921;49.006;9.292;2024-03-02T06:01:07;25.77;;;12.27;;
50932;SDS011;36921;49.006;9.292;2024-03-02T06:03:32;26.98;;;12.38;;
50932;SDS011;36921;49.006;9.292;2024-03-02T06:05:58;26.85;;;12.13;;
50932;SDS011;36921;49.006;9.292;2024-03-02T06:08:24;28.67;;;11.52;;
50932;SDS011;36921;49.006;9.292;2024-03-02T06:10:50;24.08;;;11.00;;
50932;SDS011;36921;49.006;9.292;2024-03-02T06:13:16;23.23;;;11.02;;
50932;SDS011;36921;49.006;9.292;2024-03-02T06:15:41;23.17;;;11.18;;
50932;SDS011;36921;49.006;9.292;2024-03-02T06:18:07;24.73;;;10.88;;
50932;SDS011;36921;49.006;9.292;2024-03-02T06:20:33;25.73;;;10.80;;
50932;SDS011;36921;49.006;9.292;2024-03-02T06:22:58;23.23;;;10.60;;
50932;SDS011;36921;49.006;9.292;2024-03-02T06:25:24;27.52;;;10.25;;
50932;SDS011;36921;49.006;9.292;2024-03-02T06:27:49;25.15;;;10.75;;
50932;SDS011;36921;49.006;9.292;2024-03-02T06:30:14;27.38;;;12.15;;
50932;SDS011;36921;49.006;9.292;2024-03-02T06:32:40;26.38;;;12.68;;
50932;SDS011;36921;49.006;9.292;2024-03-02T06:35:06;25.35;;;11.20;;
50932;SDS011;36921;49.006;9.292;2024-03-02T06:37:36;24.15;;;10.82;;
50932;SDS011;36921;49.006;9.292;2024-03-02T06:40:02;26.60;;;11.57;;
50932;SDS011;36921;49.006;9.292;2024-03-02T06:42:27;23.55;;;11.27;;
50932;SDS011;36921;49.006;9.292;2024-03-02T06:44:58;26.17;;;11.55;;
50932;SDS011;36921;49.006;9.292;2024-03-02T06:47:23;22.27;;;9.75;;
50932;SDS011;36921;49.006;9.292;2024-03-02T06:49:48;21.70;;;10.10;;
50932;SDS011;36921;49.006;9.292;2024-03-02T06:52:14;22.95;;;10.35;;
50932;SDS011;36921;49.006;9.292;2024-03-02T06:54:39;24.35;;;9.90;;
50932;SDS011;36921;49.006;9.292;2024-03-02T06:57:05;21.05;;;9.80;;
50932;SDS011;36921;49.006;9.292;2024-03-02T06:59:30;17.85;;;8.85;;
50932;SDS011;36921;49.006;9.292;2024-03-02T07:01:55;18.73;;;8.82;;
50932;SDS011;36921;49.006;9.292;2024-03-02T07:04:22;16.48;;;8.88;;
50932;SDS011;36921;49.006;9.292;2024-03-02T07:06:47;16.27;;;8.35;;
50932;SDS011;36921;49.006;9.292;2024-03-02T07:09:12;18.50;;;8.35;;
50932;SDS011;36921;49.006;9.292;2024-03-02T07:11:38;16.40;;;8.70;;
50932;SDS011;36921;49.006;9.292;2024-03-02T07:14:03;16.85;;;8.35;;
50932;SDS011;36921;49.006;9.292;2024-03-02T07:16:28;19.27;;;9.13;;
50932;SDS011;36921;49.006;9.292;2024-03-02T07:18:57;18.00;;;9.43;;
50932;SDS011;36921;49.006;9.292;2024-03-02T07:21:24;20.67;;;10.07;;
50932;SDS011;36921;49.006;9.292;2024-03-02T07:23:50;22.67;;;9.55;;
50932;SDS011;36921;49.006;9.292;2024-03-02T07:26:15;18.25;;;9.15;;
50932;SDS011;36921;49.006;9.292;2024-03-02T07:28:45;19.25;;;9.55;;
50932;SDS011;36921;49.006;9.292;2024-03-02T07:31:12;18.10;;;9.68;;
50932;SDS011;36921;49.006;9.292;2024-03-02T07:33:39;22.73;;;9.95;;
50932;SDS011;36921;49.006;9.292;2024-03-02T07:36:04;17.10;;;8.50;;
50932;SDS011;36921;49.006;9.292;2024-03-02T07:38:30;16.40;;;8.98;;
50932;SDS011;36921;49.006;9.292;2024-03-02T07:40:57;14.82;;;7.95;;
50932;SDS011;36921;49.006;9.292;2024-03-02T07:43:22;15.32;;;8.50;;
50932;SDS011;36921;49.006;9.292;2024-03-02T07:45:48;18.23;;;8.38;;
50932;SDS011;36921;49.006;9.292;2024-03-02T07:48:14;15.05;;;8.23;;
50932;SDS011;36921;49.006;9.292;2024-03-02T07:50:41;17.45;;;7.97;;
50932;SDS011;36921;49.006;9.292;2024-03-02T07:53:06;15.63;;;8.65;;
50932;SDS011;36921;49.006;9.292;2024-03-02T07:55:35;14.48;;;7.70;;
50932;SDS011;36921;49.006;9.292;2024-03-02T07:58:01;18.02;;;8.35;;
50932;SDS011;36921;49.006;9.292;2024-03-02T08:00:26;21.70;;;8.38;;
50932;SDS011;36921;49.006;9.292;2024-03-02T08:02:52;17.50;;;7.47;;
50932;SDS011;36921;49.006;9.292;2024-03-02T08:05:19;15.77;;;8.43;;
50932;SDS011;36921;49.006;9.292;2024-03-02T08:07:46;15.98;;;8.40;;
50932;SDS011;36921;49.006;9.292;2024-03-02T08:10:12;18.48;;;8.05;;
50932;SDS011;36921;49.006;9.292;2024-03-02T08:12:39;15.45;;;7.80;;
50932;SDS011;36921;49.006;9.292;2024-03-02T08:15:04;17.45;;;9.63;;
50932;SDS011;36921;49.006;9.292;2024-03-02T08:17:30;16.23;;;9.00;;
50932;SDS011;36921;49.006;9.292;2024-03-02T08:19:56;14.80;;;8.90;;
50932;SDS011;36921;49.006;9.292;2024-03-02T08:22:21;17.77;;;8.70;;
50932;SDS011;36921;49.006;9.292;2024-03-02T08:24:48;18.13;;;8.63;;
50932;SDS011;36921;49.006;9.292;2024-03-02T08:27:13;19.50;;;10.10;;
50932;SDS011;36921;49.006;9.292;2024-03-02T08:29:40;25.13;;;11.10;;
50932;SDS011;36921;49.006;9.292;2024-03-02T08:32:06;26.10;;;11.57;;
50932;SDS011;36921;49.006;9.292;2024-03-02T08:34:32;20.10;;;10.05;;
50932;SDS011;36921;49.006;9.292;2024-03-02T08:36:58;22.83;;;10.05;;
50932;SDS011;36921;49.006;9.292;2024-03-02T08:39:30;21.45;;;9.10;;
50932;SDS011;36921;49.006;9.292;2024-03-02T08:41:55;14.23;;;7.63;;
50932;SDS011;36921;49.006;9.292;2024-03-02T08:44:21;14.10;;;7.20;;
50932;SDS011;36921;49.006;9.292;2024-03-02T08:46:46;14.25;;;6.82;;
50932;SDS011;36921;49.006;9.292;2024-03-02T08:49:12;10.32;;;6.53;;
50932;SDS011;36921;49.006;9.292;2024-03-02T08:51:38;13.05;;;6.78;;
50932;SDS011;36921;49.006;9.292;2024-03-02T08:54:03;16.38;;;6.95;;
50932;SDS011;36921;49.006;9.292;2024-03-02T08:56:29;9.75;;;5.30;;
50932;SDS011;36921;49.006;9.292;2024-03-02T08:58:56;13.00;;;6.55;;
50932;SDS011;36921;49.006;9.292;2024-03-02T09:01:21;37.15;;;15.07;;
50932;SDS011;36921;49.006;9.292;2024-03-02T09:03:53;27.10;;;13.52;;
50932;SDS011;36921;49.006;9.292;2024-03-02T09:06:18;25.65;;;13.10;;
50932;SDS011;36921;49.006;9.292;2024-03-02T09:08:45;17.60;;;9.57;;
50932;SDS011;36921;49.006;9.292;2024-03-02T09:11:10;12.15;;;6.85;;
50932;SDS011;36921;49.006;9.292;2024-03-02T09:13:37;8.10;;;5.13;;
50932;SDS011;36921;49.006;9.292;2024-03-02T09:16:03;7.10;;;4.75;;
50932;SDS011;36921;49.006;9.292;2024-03-02T09:18:31;6.97;;;4.05;;
50932;SDS011;36921;49.006;9.292;2024-03-02T09:20:56;7.10;;;4.72;;
50932;SDS011;36921;49.006;9.292;2024-03-02T09:23:22;6.93;;;4.65;;
50932;SDS011;36921;49.006;9.292;2024-03-02T09:25:47;7.68;;;4.20;;
50932;SDS011;36921;49.006;9.292;2024-03-02T09:28:13;6.05;;;3.78;;
50932;SDS011;36921;49.006;9.292;2024-03-02T09:30:40;4.75;;;3.60;;
50932;SDS011;36921;49.006;9.292;2024-03-02T09:33:05;4.43;;;3.22;;
50932;SDS011;36921;49.006;9.292;2024-03-02T09:35:31;4.47;;;3.03;;
50932;SDS011;36921;49.006;9.292;2024-03-02T09:37:58;4.85;;;3.00;;
50932;SDS011;36921;49.006;9.292;2024-03-02T09:40:23;4.60;;;2.67;;
50932;SDS011;36921;49.006;9.292;2024-03-02T09:42:49;4.03;;;2.92;;
50932;SDS011;36921;49.006;9.292;2024-03-02T09:45:26;5.82;;;2.70;;
50932;SDS011;36921;49.006;9.292;2024-03-02T09:47:52;5.55;;;3.17;;
50932;SDS011;36921;49.006;9.292;2024-03-02T09:50:17;4.47;;;2.30;;
50932;SDS011;36921;49.006;9.292;2024-03-02T09:52:43;3.42;;;2.47;;
50932;SDS011;36921;49.006;9.292;2024-03-02T09:55:09;4.22;;;2.50;;
50932;SDS011;36921;49.006;9.292;2024-03-02T09:57:34;3.88;;;2.42;;
50932;SDS011;36921;49.006;9.292;2024-03-02T10:00:00;3.72;;;2.10;;
50932;SDS011;36921;49.006;9.292;2024-03-02T10:02:25;3.60;;;2.08;;
50932;SDS011;36921;49.006;9.292;2024-03-02T10:04:51;3.88;;;2.58;;
50932;SDS011;36921;49.006;9.292;2024-03-02T10:07:17;4.10;;;3.10;;
50932;SDS011;36921;49.006;9.292;2024-03-02T10:09:44;3.83;;;2.72;;
50932;SDS011;36921;49.006;9.292;2024-03-02T10:12:11;4.05;;;2.75;;
50932;SDS011;36921;49.006;9.292;2024-03-02T10:14:38;3.63;;;2.60;;
50932;SDS011;36921;49.006;9.292;2024-03-02T10:17:11;6.00;;;3.45;;
50932;SDS011;36921;49.006;9.292;2024-03-02T10:19:38;5.28;;;3.38;;
50932;SDS011;36921;49.006;9.292;2024-03-02T10:22:05;4.50;;;3.05;;
50932;SDS011;36921;49.006;9.292;2024-03-02T10:27:14;3.83;;;2.90;;
50932;SDS011;36921;49.006;9.292;2024-03-02T10:29:42;4.10;;;2.80;;
50932;SDS011;36921;49.006;9.292;2024-03-02T10:32:08;6.53;;;2.58;;
50932;SDS011;36921;49.006;9.292;2024-03-02T10:34:36;4.47;;;2.80;;
50932;SDS011;36921;49.006;9.292;2024-03-02T10:37:02;3.88;;;2.33;;
50932;SDS011;36921;49.006;9.292;2024-03-02T10:39:28;3.58;;;2.30;;
50932;SDS011;36921;49.006;9.292;2024-03-02T10:41:55;4.07;;;2.22;;
50932;SDS011;36921;49.006;9.292;2024-03-02T10:44:22;3.92;;;2.15;;
50932;SDS011;36921;49.006;9.292;2024-03-02T10:46:48;3.03;;;2.00;;
50932;SDS011;36921;49.006;9.292;2024-03-02T10:49:15;3.38;;;1.63;;
50932;SDS011;36921;49.006;9.292;2024-03-02T10:51:41;2.78;;;2.00;;
50932;SDS011;36921;49.006;9.292;2024-03-02T10:54:07;2.88;;;2.00;;
50932;SDS011;36921;49.006;9.292;2024-03-02T10:56:39;2.78;;;1.65;;
50932;SDS011;36921;49.006;9.292;2024-03-02T11:01:50;2.83;;;1.63;;
50932;SDS011;36921;49.006;9.292;2024-03-02T11:04:16;2.55;;;1.70;;
50932;SDS011;36921;49.006;9.292;2024-03-02T11:06:45;3.05;;;1.88;;
50932;SDS011;36921;49.006;9.292;2024-03-02T11:09:13;3.08;;;1.92;;
50932;SDS011;36921;49.006;9.292;2024-03-02T11:11:40;2.80;;;1.70;;
50932;SDS011;36921;49.006;9.292;2024-03-02T11:14:10;3.30;;;1.60;;
50932;SDS011;36921;49.006;9.292;2024-03-02T11:16:38;2.63;;;1.65;;
50932;SDS011;36921;49.006;9.292;2024-03-02T11:19:06;2.50;;;1.50;;
50932;SDS011;36921;49.006;9.292;2024-03-02T11:21:35;3.35;;;1.27;;
50932;SDS011;36921;49.006;9.292;2024-03-02T11:24:17;1.88;;;1.20;;
50932;SDS011;36921;49.006;9.292;2024-03-02T11:26:46;2.67;;;1.27;;
50932;SDS011;36921;49.006;9.292;2024-03-02T11:29:38;1.90;;;0.98;;
50932;SDS011;36921;49.006;9.292;2024-03-02T11:34:40;1.52;;;1.00;;
50932;SDS011;36921;49.006;9.292;2024-03-02T11:37:10;2.65;;;1.17;;
50932;SDS011;36921;49.006;9.292;2024-03-02T11:39:36;1.15;;;0.80;;
50932;SDS011;36921;49.006;9.292;2024-03-02T11:42:04;0.95;;;0.80;;
50932;SDS011;36921;49.006;9.292;2024-03-02T11:44:30;1.50;;;0.95;;
50932;SDS011;36921;49.006;9.292;2024-03-02T11:46:58;2.35;;;0.90;;
50932;SDS011;36921;49.006;9.292;2024-03-02T11:49:40;2.42;;;0.80;;
50932;SDS011;36921;49.006;9.292;2024-03-02T11:52:08;1.35;;;0.98;;
50932;SDS011;36921;49.006;9.292;2024-03-02T11:54:34;1.15;;;0.70;;
50932;SDS011;36921;49.006;9.292;2024-03-02T11:57:11;5.07;;;1.83;;
50932;SDS011;36921;49.006;9.292;2024-03-02T11:59:37;1.52;;;1.05;;
50932;SDS011;36921;49.006;9.292;2024-03-02T12:02:02;2.85;;;1.10;;
50932;SDS011;36921;49.006;9.292;2024-03-02T12:04:27;2.65;;;0.80;;
50932;SDS011;36921;49.006;9.292;2024-03-02T12:06:57;2.63;;;0.90;;
50932;SDS011;36921;49.006;9.292;2024-03-02T12:09:27;1.17;;;0.77;;
50932;SDS011;36921;49.006;9.292;2024-03-02T12:12:05;1.65;;;1.00;;
50932;SDS011;36921;49.006;9.292;2024-03-02T12:14:32;4.57;;;0.98;;
50932;SDS011;36921;49.006;9.292;2024-03-02T12:16:58;4.97;;;0.90;;
50932;SDS011;36921;49.006;9.292;2024-03-02T12:19:25;4.65;;;0.88;;
50932;SDS011;36921;49.006;9.292;2024-03-02T12:21:54;2.70;;;0.70;;
50932;SDS011;36921;49.006;9.292;2024-03-02T12:24:21;1.30;;;0.70;;
50932;SDS011;36921;49.006;9.292;2024-03-02T12:26:47;1.23;;;0.70;;
50932;SDS011;36921;49.006;9.292;2024-03-02T12:29:14;1.63;;;0.70;;
50932;SDS011;36921;49.006;9.292;2024-03-02T12:31:40;2.50;;;0.93;;
50932;SDS011;36921;49.006;9.292;2024-03-02T12:34:06;0.98;;;0.60;;
50932;SDS011;36921;49.006;9.292;2024-03-02T12:36:39;1.92;;;0.63;;
50932;SDS011;36921;49.006;9.292;2024-03-02T12:39:06;0.93;;;0.50;;
50932;SDS011;36921;49.006;9.292;2024-03-02T12:41:33;1.15;;;0.50;;
50932;SDS011;36921;49.006;9.292;2024-03-02T12:44:01;1.65;;;0.80;;
50932;SDS011;36921;49.006;9.292;2024-03-02T12:46:26;2.22;;;0.70;;
50932;SDS011;36921;49.006;9.292;2024-03-02T12:48:52;1.83;;;0.50;;
50932;SDS011;36921;49.006;9.292;2024-03-02T12:51:17;0.80;;;0.55;;
50932;SDS011;36921;49.006;9.292;2024-03-02T12:53:42;0.80;;;0.40;;
50932;SDS011;36921;49.006;9.292;2024-03-02T12:56:08;1.40;;;0.43;;
50932;SDS011;36921;49.006;9.292;2024-03-02T12:58:38;0.30;;;0.30;;
50932;SDS011;36921;49.006;9.292;2024-03-02T13:01:05;0.70;;;0.55;;
50932;SDS011;36921;49.006;9.292;2024-03-02T13:03:34;1.25;;;0.63;;
50932;SDS011;36921;49.006;9.292;2024-03-02T13:06:01;1.13;;;0.52;;
50932;SDS011;36921;49.006;9.292;2024-03-02T13:08:26;0.90;;;0.68;;
50932;SDS011;36921;49.006;9.292;2024-03-02T13:10:52;0.43;;;0.30;;
50932;SDS011;36921;49.006;9.292;2024-03-02T13:13:17;1.02;;;0.40;;
50932;SDS011;36921;49.006;9.292;2024-03-02T13:15:43;1.70;;;0.50;;
50932;SDS011;36921;49.006;9.292;2024-03-02T13:18:10;0.68;;;0.30;;
50932;SDS011;36921;49.006;9.292;2024-03-02T13:20:36;1.25;;;0.40;;
50932;SDS011;36921;49.006;9.292;2024-03-02T13:23:02;3.95;;;0.50;;
50932;SDS011;36921;49.006;9.292;2024-03-02T13:25:27;0.65;;;0.40;;
50932;SDS011;36921;49.006;9.292;2024-03-02T13:27:52;0.50;;;0.40;;
50932;SDS011;36921;49.006;9.292;2024-03-02T13:30:18;0.98;;;0.47;;
50932;SDS011;36921;49.006;9.292;2024-03-02T13:32:43;0.70;;;0.57;;
50932;SDS011;36921;49.006;9.292;2024-03-02T13:35:08;1.17;;;0.50;;
50932;SDS011;36921;49.006;9.292;2024-03-02T13:37:36;0.60;;;0.40;;
50932;SDS011;36921;49.006;9.292;2024-03-02T13:40:01;0.50;;;0.35;;
50932;SDS011;36921;49.006;9.292;2024-03-02T13:42:29;1.50;;;0.55;;
50932;SDS011;36921;49.006;9.292;2024-03-02T13:44:54;3.47;;;0.45;;
50932;SDS011;36921;49.006;9.292;2024-03-02T13:47:19;0.98;;;0.30;;
50932;SDS011;36921;49.006;9.292;2024-03-02T13:49:46;0.43;;;0.30;;
50932;SDS011;36921;49.006;9.292;2024-03-02T13:52:13;4.43;;;0.57;;
50932;SDS011;36921;49.006;9.292;2024-03-02T13:54:43;0.57;;;0.40;;
50932;SDS011;36921;49.006;9.292;2024-03-02T13:57:10;2.05;;;0.40;;
50932;SDS011;36921;49.006;9.292;2024-03-02T13:59:36;1.30;;;0.60;;
50932;SDS011;36921;49.006;9.292;2024-03-02T14:02:02;1.13;;;0.70;;
50932;SDS011;36921;49.006;9.292;2024-03-02T14:04:31;0.88;;;0.60;;
50932;SDS011;36921;49.006;9.292;2024-03-02T14:06:58;1.27;;;0.40;;
50932;SDS011;36921;49.006;9.292;2024-03-02T14:09:23;0.77;;;0.43;;
50932;SDS011;36921;49.006;9.292;2024-03-02T14:11:49;0.65;;;0.32;;
50932;SDS011;36921;49.006;9.292;2024-03-02T14:14:16;0.50;;;0.40;;
50932;SDS011;36921;49.006;9.292;2024-03-02T14:16:41;1.17;;;0.52;;
50932;SDS011;36921;49.006;9.292;2024-03-02T14:19:07;1.88;;;0.70;;
50932;SDS011;36921;49.006;9.292;2024-03-02T14:21:34;0.47;;;0.40;;
50932;SDS011;36921;49.006;9.292;2024-03-02T14:24:00;0.85;;;0.30;;
50932;SDS011;36921;49.006;9.292;2024-03-02T14:26:26;0.60;;;0.47;;
50932;SDS011;36921;49.006;9.292;2024-03-02T14:28:52;1.20;;;0.40;;
50932;SDS011;36921;49.006;9.292;2024-03-02T14:31:17;0.60;;;0.50;;
50932;SDS011;36921;49.006;9.292;2024-03-02T14:33:43;2.92;;;0.60;;
50932;SDS011;36921;49.006;9.292;2024-03-02T14:36:08;1.27;;;0.38;;
50932;SDS011;36921;49.006;9.292;2024-03-02T14:38:34;0.60;;;0.40;;
50932;SDS011;36921;49.006;9.292;2024-03-02T14:40:59;0.90;;;0.50;;
50932;SDS011;36921;49.006;9.292;2024-03-02T14:43:25;0.65;;;0.50;;
50932;SDS011;36921;49.006;9.292;2024-03-02T14:45:50;1.05;;;0.40;;